METAR Data
IDs: Format: Raw Decoded Include TAF

Data at: 1335 UTC 14 Dec 2019

METAR for:KHNR (Harlan Muni, IA, US)
Text:KHNR 141335Z AUTO 32019KT 10SM -SN OVC014 M08/M10 A2997 RMK AO2
Temperature: -8.0°C ( 18°F)
Dewpoint:-10.0°C ( 14°F) [RH = 85%]
Pressure (altimeter):29.97 inches Hg (1015.0 mb)
Winds:from the NW (320 degrees) at 22 MPH (19 knots; 9.8 m/s)
Visibility:10 or more sm (16+ km)
Ceiling:1400 feet AGL
Clouds: overcast cloud deck at 1400 feet AGL
Weather:-SN (light snow)
QC Flag:automated observation with no human augmentation